메인 페이지
METAR-TAF:

METAR-TAF

공항 :

코펜하겐, 덴마크

코펜하겐 카스트럽 국제공항

위도: 55-37N, 경도: 012-39E, 고도: 5m

현재 날씨관측

예보는 32분 전, 13:20시(UTC)에 발표되었습니다.
남남동7kt
온도 3°C
습도 87%
기압 1020 hPa
시정: 8000m
고도 1000ft 상공 구름 조금
고도 2700ft 상공 구름 많음

METAR: EKCH 191320Z 16007KT 8000 FEW010 BKN027 03/01 Q1020 NOSIG

시각: 14:52 (13:52 UTC)

예보

예보는 2 시간 44분 전, 11:08시(UTC)에 발표되었습니다.
예보 대상 시간: 19일 12시부터 20일 12시까지 (UTC)
남서8kt
시정: 8000m
고도 3000ft 상공 구름 조금
일시적
19일 12시부터 19일 23시까지 (UTC)
고도 800ft 상공 구름 많음
전환 중
19일 23시부터 20일 01시까지 (UTC)
12kt

TAF: EKCH 191108Z 1912/2012 22008KT 8000 FEW030 TEMPO 1912/1923 BKN008 BECMG 1923/2001 09012KT

4,000개 이상의 공항 관측 자료 및 예보 (METAR 및 TAF 보고).

지도상에서 검색 가능한 기상관측소가 노란 점과 빨간 점으로 표시되어 있습니다.

기상관측소 명을 보려면 표시 위로 마우스를 이동하세요.

날씨 관측과 예보를 보려면 클릭하세요.

지도 변경 : 확대하려면 엑스 표시가 있는 녹색 버튼, 축소하려면 빼기 표시가 있는 녹색 버튼, 다음 페이지의 지도를 보려면 녹색 화살표를 클릭하세요.


METAR-TAF: